createdAt,value
2023-04-17T00:00:06.339Z,8.86
2023-04-17T00:01:06.300Z,8.91
2023-04-17T00:02:06.315Z,8.87
2023-04-17T00:03:06.375Z,8.87
2023-04-17T00:04:06.461Z,8.87
2023-04-17T00:05:06.378Z,8.80
2023-04-17T00:06:06.270Z,8.79
2023-04-17T00:07:06.199Z,8.80
2023-04-17T00:08:06.190Z,8.76
2023-04-17T00:09:06.200Z,8.83
2023-04-17T00:10:06.174Z,8.83
2023-04-17T00:11:08.517Z,8.79
2023-04-17T00:12:06.115Z,8.74
2023-04-17T00:13:06.090Z,8.86
2023-04-17T00:14:06.086Z,8.74
2023-04-17T00:15:06.059Z,8.76
2023-04-17T00:16:06.063Z,8.80
2023-04-17T00:17:06.062Z,8.74
2023-04-17T00:18:06.025Z,8.87
2023-04-17T00:19:06.017Z,8.81
2023-04-17T00:20:05.976Z,8.76
2023-04-17T00:21:05.968Z,8.76
2023-04-17T00:22:05.982Z,8.70
2023-04-17T00:23:05.946Z,8.70
2023-04-17T00:24:05.974Z,8.74
2023-04-17T00:25:05.917Z,8.74
2023-04-17T00:26:05.873Z,8.73
2023-04-17T00:27:05.900Z,8.73
2023-04-17T00:28:05.913Z,8.70
2023-04-17T00:29:05.827Z,8.77
2023-04-17T00:30:05.806Z,8.77
2023-04-17T00:31:05.803Z,8.59
2023-04-17T00:32:05.856Z,8.76
2023-04-17T00:33:05.812Z,8.76
2023-04-17T00:34:05.792Z,8.70
2023-04-17T00:35:05.731Z,8.76
2023-04-17T00:36:05.712Z,8.73
2023-04-17T00:37:05.702Z,8.74
2023-04-17T00:38:05.685Z,8.77
2023-04-17T00:39:05.665Z,8.62
2023-04-17T00:40:05.645Z,8.63
2023-04-17T00:41:05.631Z,8.63
2023-04-17T00:42:05.617Z,8.62
2023-04-17T00:43:05.593Z,8.61
2023-04-17T00:44:05.602Z,8.63
2023-04-17T00:45:05.585Z,8.77
2023-04-17T00:46:05.613Z,8.65
2023-04-17T00:47:05.536Z,8.59
2023-04-17T00:48:05.559Z,8.59
2023-04-17T00:49:05.492Z,8.61
2023-04-17T00:50:05.517Z,8.71
2023-04-17T00:51:05.483Z,8.63
2023-04-17T00:52:05.442Z,8.68
2023-04-17T00:53:05.463Z,8.63
2023-04-17T00:54:05.450Z,8.74
2023-04-17T00:55:05.400Z,8.62
2023-04-17T00:56:05.389Z,8.61
2023-04-17T00:57:05.373Z,8.61
2023-04-17T00:58:05.341Z,8.62
2023-04-17T00:59:05.332Z,8.63
2023-04-17T01:00:05.308Z,8.56
2023-04-17T01:01:05.430Z,8.62
2023-04-17T01:02:05.351Z,8.56
2023-04-17T01:03:05.452Z,8.61
2023-04-17T01:04:05.385Z,8.65
2023-04-17T01:05:05.227Z,8.62
2023-04-17T01:06:05.241Z,8.63
2023-04-17T01:07:05.195Z,8.58
2023-04-17T01:08:05.215Z,8.59
2023-04-17T01:09:05.168Z,8.59
2023-04-17T01:10:05.165Z,8.55
2023-04-17T01:11:05.124Z,8.50
2023-04-17T01:12:05.108Z,8.58
2023-04-17T01:13:05.142Z,8.52
2023-04-17T01:14:05.074Z,8.55
2023-04-17T01:15:05.058Z,8.53
2023-04-17T01:16:05.066Z,8.53
2023-04-17T01:17:05.100Z,8.56
2023-04-17T01:18:05.133Z,8.52
2023-04-17T01:19:05.003Z,8.56
2023-04-17T01:20:05.057Z,8.58
2023-04-17T01:21:04.962Z,8.47
2023-04-17T01:22:04.944Z,8.55
2023-04-17T01:23:04.922Z,8.58
2023-04-17T01:24:04.920Z,8.53
2023-04-17T01:25:04.898Z,8.48
2023-04-17T01:26:04.869Z,8.52
2023-04-17T01:27:04.863Z,8.52
2023-04-17T01:28:04.834Z,8.52
2023-04-17T01:29:04.821Z,8.52
2023-04-17T01:30:04.879Z,8.48
2023-04-17T01:31:04.836Z,8.53
2023-04-17T01:32:04.797Z,8.53
2023-04-17T01:33:04.800Z,8.53
2023-04-17T01:34:04.734Z,8.55
2023-04-17T01:35:04.777Z,8.50
2023-04-17T01:36:04.745Z,8.50
2023-04-17T01:37:04.746Z,8.56
2023-04-17T01:38:04.665Z,8.44
2023-04-17T01:39:04.653Z,8.48
2023-04-17T01:40:04.638Z,8.48
2023-04-17T01:41:04.636Z,8.44
2023-04-17T01:42:04.654Z,8.47
2023-04-17T01:43:04.589Z,8.47
2023-04-17T01:44:05.291Z,8.37
2023-04-17T01:45:04.553Z,8.45
2023-04-17T01:46:04.568Z,8.40
2023-04-17T01:47:04.517Z,8.47
2023-04-17T01:48:04.661Z,8.45
2023-04-17T01:49:04.480Z,8.48
2023-04-17T01:50:04.473Z,8.44
2023-04-17T01:51:04.453Z,8.45
2023-04-17T01:52:04.430Z,8.47
2023-04-17T01:53:04.446Z,8.45
2023-04-17T01:54:04.405Z,8.52
2023-04-17T01:55:04.403Z,8.45
2023-04-17T01:56:04.369Z,8.37
2023-04-17T01:57:04.391Z,8.47
2023-04-17T01:58:04.330Z,8.40
2023-04-17T01:59:04.318Z,8.45
2023-04-17T02:00:04.301Z,8.47
2023-04-17T02:01:04.294Z,8.44
2023-04-17T02:02:04.423Z,8.48
2023-04-17T02:03:04.388Z,8.40
2023-04-17T02:04:04.310Z,8.40
2023-04-17T02:05:04.219Z,8.47
2023-04-17T02:06:04.202Z,8.47
2023-04-17T02:07:04.207Z,8.40
2023-04-17T02:08:04.196Z,8.37
2023-04-17T02:09:04.161Z,8.44
2023-04-17T02:10:04.140Z,8.45
2023-04-17T02:11:04.115Z,8.43
2023-04-17T02:12:04.157Z,8.48
2023-04-17T02:13:04.090Z,8.45
2023-04-17T02:14:04.125Z,8.44
2023-04-17T02:15:04.049Z,8.44
2023-04-17T02:16:04.045Z,8.26
2023-04-17T02:17:04.011Z,8.30
2023-04-17T02:18:04.036Z,8.40
2023-04-17T02:19:03.983Z,8.29
2023-04-17T02:20:03.994Z,8.29
2023-04-17T02:21:03.949Z,8.40
2023-04-17T02:22:03.933Z,8.44
2023-04-17T02:23:03.911Z,8.40
2023-04-17T02:24:03.892Z,8.37
2023-04-17T02:25:03.879Z,8.44
2023-04-17T02:26:03.866Z,8.47
2023-04-17T02:27:10.321Z,8.50
2023-04-17T02:28:03.833Z,8.52
2023-04-17T02:29:03.832Z,8.47
2023-04-17T02:30:03.802Z,8.52
2023-04-17T02:31:03.805Z,8.47
2023-04-17T02:32:03.761Z,8.52
2023-04-17T02:33:03.809Z,8.41
2023-04-17T02:34:03.768Z,8.48
2023-04-17T02:35:03.717Z,8.48
2023-04-17T02:36:03.692Z,8.53
2023-04-17T02:37:03.676Z,8.47
2023-04-17T02:38:03.658Z,8.48
2023-04-17T02:39:03.648Z,8.48
2023-04-17T02:40:03.621Z,8.53
2023-04-17T02:41:03.615Z,8.53
2023-04-17T02:42:03.585Z,8.50
2023-04-17T02:43:03.603Z,8.55
2023-04-17T02:44:03.575Z,8.55
2023-04-17T02:45:03.555Z,8.52
2023-04-17T02:46:03.532Z,8.52
2023-04-17T02:47:03.545Z,8.56
2023-04-17T02:48:03.557Z,8.53
2023-04-17T02:49:03.468Z,8.53
2023-04-17T02:50:03.453Z,8.53
2023-04-17T02:51:03.435Z,8.44
2023-04-17T02:52:03.424Z,8.50
2023-04-17T02:53:03.408Z,8.47
2023-04-17T02:54:03.390Z,8.52
2023-04-17T02:55:03.374Z,8.40
2023-04-17T02:56:03.373Z,8.40
2023-04-17T02:57:03.335Z,8.45
2023-04-17T02:58:03.358Z,8.44
2023-04-17T02:59:03.318Z,8.43
2023-04-17T03:00:03.297Z,8.28
2023-04-17T03:01:03.356Z,8.26
2023-04-17T03:02:03.347Z,8.20
2023-04-17T03:03:03.494Z,8.37
2023-04-17T03:04:03.429Z,8.37
2023-04-17T03:05:03.206Z,8.29
2023-04-17T03:06:03.204Z,8.38
2023-04-17T03:07:03.168Z,8.36
2023-04-17T03:08:03.154Z,8.36
2023-04-17T03:09:03.161Z,8.26
2023-04-17T03:10:03.124Z,8.26
2023-04-17T03:11:03.102Z,8.23
2023-04-17T03:12:03.092Z,8.26
2023-04-17T03:13:03.064Z,8.23
2023-04-17T03:14:03.049Z,8.20
2023-04-17T03:15:03.071Z,8.22
2023-04-17T03:16:03.037Z,8.16
2023-04-17T03:17:03.012Z,8.12
2023-04-17T03:18:03.018Z,8.12
2023-04-17T03:19:02.973Z,8.10
2023-04-17T03:20:03.004Z,8.11
2023-04-17T03:21:02.931Z,8.12
2023-04-17T03:22:02.916Z,8.15
2023-04-17T03:23:02.908Z,8.16
2023-04-17T03:24:02.886Z,8.12
2023-04-17T03:25:02.863Z,8.10
2023-04-17T03:26:02.925Z,8.15
2023-04-17T03:27:02.833Z,8.16
2023-04-17T03:28:02.813Z,8.15
2023-04-17T03:29:02.803Z,8.08
2023-04-17T03:30:02.790Z,8.10
2023-04-17T03:31:02.764Z,8.07
2023-04-17T03:32:02.832Z,8.08
2023-04-17T03:33:02.910Z,8.07
2023-04-17T03:34:02.718Z,8.07
2023-04-17T03:35:02.713Z,8.05
2023-04-17T03:36:02.681Z,8.04
2023-04-17T03:37:02.678Z,8.05
2023-04-17T03:38:02.643Z,8.07
2023-04-17T03:39:02.625Z,8.04
2023-04-17T03:40:02.615Z,7.98
2023-04-17T03:41:02.588Z,8.04
2023-04-17T03:42:02.632Z,8.05
2023-04-17T03:43:02.555Z,8.04
2023-04-17T03:44:02.550Z,7.97
2023-04-17T03:45:02.528Z,7.98
2023-04-17T03:46:02.538Z,7.95
2023-04-17T03:47:02.495Z,7.90
2023-04-17T03:48:02.659Z,7.95
2023-04-17T03:49:02.468Z,7.92
2023-04-17T03:50:02.442Z,7.90
2023-04-17T03:51:03.345Z,7.97
2023-04-17T03:52:02.422Z,7.92
2023-04-17T03:53:02.387Z,7.92
2023-04-17T03:54:02.394Z,7.90
2023-04-17T03:55:02.352Z,7.92
2023-04-17T03:56:02.331Z,7.98
2023-04-17T03:57:02.316Z,8.00
2023-04-17T03:58:02.300Z,7.93
2023-04-17T03:59:02.307Z,7.97
2023-04-17T04:00:02.274Z,7.87
2023-04-17T04:01:02.290Z,7.89
2023-04-17T04:02:02.294Z,7.95
2023-04-17T04:03:02.540Z,7.85
2023-04-17T04:04:02.264Z,7.89
2023-04-17T04:05:02.219Z,7.95
2023-04-17T04:06:02.184Z,7.90
2023-04-17T04:07:02.160Z,7.92
2023-04-17T04:08:02.138Z,8.00
2023-04-17T04:09:02.107Z,7.95
2023-04-17T04:10:02.088Z,7.95
2023-04-17T04:11:02.176Z,8.02
2023-04-17T04:12:02.079Z,8.01
2023-04-17T04:13:02.041Z,7.90
2023-04-17T04:14:02.032Z,8.02
2023-04-17T04:15:02.007Z,7.93
2023-04-17T04:16:02.012Z,7.90
2023-04-17T04:17:02.011Z,7.98
2023-04-17T04:18:02.023Z,7.90
2023-04-17T04:19:01.955Z,7.89
2023-04-17T04:20:01.915Z,7.93
2023-04-17T04:21:01.921Z,7.92
2023-04-17T04:22:01.877Z,7.90
2023-04-17T04:23:01.932Z,7.86
2023-04-17T04:24:01.848Z,7.93
2023-04-17T04:25:01.828Z,7.87
2023-04-17T04:26:01.973Z,7.82
2023-04-17T04:27:01.796Z,7.92
2023-04-17T04:28:01.817Z,7.89
2023-04-17T04:29:01.787Z,7.98
2023-04-17T04:30:01.757Z,7.93
2023-04-17T04:31:01.751Z,7.90
2023-04-17T04:32:01.714Z,7.97
2023-04-17T04:33:01.717Z,7.90
2023-04-17T04:34:01.711Z,7.93
2023-04-17T04:35:01.689Z,7.89
2023-04-17T04:36:01.982Z,7.85
2023-04-17T04:37:01.629Z,7.86
2023-04-17T04:38:01.605Z,7.89
2023-04-17T04:39:01.596Z,7.87
2023-04-17T04:40:01.628Z,7.92
2023-04-17T04:41:01.612Z,7.86
2023-04-17T04:42:01.554Z,7.93
2023-04-17T04:43:01.521Z,7.83
2023-04-17T04:44:01.531Z,7.93
2023-04-17T04:45:01.580Z,7.90
2023-04-17T04:46:01.484Z,7.85
2023-04-17T04:47:01.629Z,7.82
2023-04-17T04:48:01.451Z,7.92
2023-04-17T04:49:01.418Z,7.85
2023-04-17T04:50:01.429Z,7.90
2023-04-17T04:51:01.492Z,7.87
2023-04-17T04:52:01.422Z,7.86
2023-04-17T04:53:01.356Z,7.86
2023-04-17T04:54:01.347Z,7.85
2023-04-17T04:55:01.343Z,7.85
2023-04-17T04:56:01.295Z,7.85
2023-04-17T04:57:01.300Z,7.82
2023-04-17T04:58:01.271Z,7.82
2023-04-17T04:59:01.254Z,7.80
2023-04-17T05:00:01.255Z,7.80
2023-04-17T05:01:01.270Z,7.83
2023-04-17T05:02:01.330Z,7.80
2023-04-17T05:03:01.570Z,7.82
2023-04-17T05:04:01.405Z,7.82
2023-04-17T05:05:01.271Z,7.86
2023-04-17T05:06:01.138Z,7.86
2023-04-17T05:07:01.136Z,7.89
2023-04-17T05:08:01.141Z,7.85
2023-04-17T05:09:01.138Z,7.85
2023-04-17T05:10:01.069Z,7.85
2023-04-17T05:11:01.051Z,7.86
2023-04-17T05:12:01.026Z,7.85
2023-04-17T05:13:01.038Z,7.86
2023-04-17T05:14:01.002Z,7.83
2023-04-17T05:15:00.988Z,7.80
2023-04-17T05:16:01.766Z,7.82
2023-04-17T05:17:00.944Z,7.85
2023-04-17T05:18:00.959Z,7.83
2023-04-17T05:19:00.960Z,7.77
2023-04-17T05:20:00.915Z,7.83
2023-04-17T05:21:00.881Z,7.83
2023-04-17T05:22:00.861Z,7.87
2023-04-17T05:23:00.867Z,7.83
2023-04-17T05:24:00.827Z,7.85
2023-04-17T05:25:00.836Z,7.87
2023-04-17T05:26:00.797Z,7.83
2023-04-17T05:27:00.774Z,7.82
2023-04-17T05:28:00.752Z,7.83
2023-04-17T05:29:00.737Z,7.82
2023-04-17T05:30:00.773Z,7.82
2023-04-17T05:31:00.722Z,7.83
2023-04-17T05:32:00.829Z,7.82
2023-04-17T05:33:00.697Z,7.85
2023-04-17T05:34:00.650Z,7.83
2023-04-17T05:35:00.647Z,7.86
2023-04-17T05:36:00.644Z,7.82
2023-04-17T05:37:00.608Z,7.85
2023-04-17T05:38:00.588Z,7.86
2023-04-17T05:39:00.573Z,7.86
2023-04-17T05:40:00.644Z,7.87
2023-04-17T05:41:00.533Z,7.87
2023-04-17T05:42:00.514Z,7.83
2023-04-17T05:43:00.493Z,7.92
2023-04-17T05:44:00.477Z,7.85
2023-04-17T05:45:00.474Z,7.82
2023-04-17T05:46:00.492Z,7.87
2023-04-17T05:47:00.426Z,7.87
2023-04-17T05:48:00.439Z,7.86
2023-04-17T05:49:00.408Z,7.86
2023-04-17T05:50:00.371Z,7.86
2023-04-17T05:51:00.392Z,7.89
2023-04-17T05:52:00.364Z,7.82
2023-04-17T05:53:00.321Z,7.85
2023-04-17T05:54:00.304Z,7.93
2023-04-17T05:55:00.319Z,7.90
2023-04-17T05:56:00.301Z,7.98
2023-04-17T05:57:00.419Z,7.97
2023-04-17T05:58:01.214Z,7.95
2023-04-17T05:59:00.222Z,7.98
2023-04-17T06:00:00.241Z,8.02
2023-04-17T06:01:00.234Z,7.97
2023-04-17T06:02:00.432Z,8.04
2023-04-17T06:03:00.257Z,8.05
2023-04-17T06:04:01.922Z,8.02
2023-04-17T06:05:00.339Z,8.04
2023-04-17T06:06:00.209Z,8.01
2023-04-17T06:07:00.128Z,8.05
2023-04-17T06:08:00.069Z,8.02
2023-04-17T06:09:00.051Z,8.01
2023-04-17T06:10:00.040Z,8.05
2023-04-17T06:11:00.068Z,8.05
2023-04-17T06:12:00.005Z,8.08
2023-04-17T06:13:00.015Z,8.07
2023-04-17T06:13:59.967Z,8.04
2023-04-17T06:14:59.950Z,8.05
2023-04-17T06:15:59.940Z,8.05
2023-04-17T06:16:59.988Z,8.07
2023-04-17T06:17:59.987Z,8.16
2023-04-17T06:18:59.888Z,8.07
2023-04-17T06:19:59.871Z,8.07
2023-04-17T06:20:59.849Z,8.08
2023-04-17T06:21:59.838Z,8.08
2023-04-17T06:22:59.841Z,8.04
2023-04-17T06:23:59.800Z,8.10
2023-04-17T06:24:59.825Z,8.05
2023-04-17T06:25:59.768Z,8.07
2023-04-17T06:26:59.749Z,8.02
2023-04-17T06:27:59.763Z,8.05
2023-04-17T06:28:59.764Z,8.05
2023-04-17T06:29:59.725Z,8.11
2023-04-17T06:30:59.754Z,8.05
2023-04-17T06:31:59.679Z,8.15
2023-04-17T06:32:59.668Z,8.12
2023-04-17T06:33:59.634Z,8.10
2023-04-17T06:34:59.901Z,8.04
2023-04-17T06:35:59.601Z,8.05
2023-04-17T06:36:59.612Z,8.07
2023-04-17T06:37:59.594Z,8.05
2023-04-17T06:38:59.546Z,8.12
2023-04-17T06:39:59.582Z,8.22
2023-04-17T06:40:59.513Z,8.25
2023-04-17T06:41:59.495Z,8.08
2023-04-17T06:42:59.486Z,8.15
2023-04-17T06:43:59.463Z,8.15
2023-04-17T06:44:59.453Z,8.26
2023-04-17T06:45:59.483Z,8.26
2023-04-17T06:47:01.753Z,8.26
2023-04-17T06:47:59.462Z,8.33
2023-04-17T06:48:59.381Z,8.22
2023-04-17T06:49:59.362Z,8.36
2023-04-17T06:50:59.360Z,8.30
2023-04-17T06:51:59.366Z,8.34
2023-04-17T06:52:59.311Z,8.38
2023-04-17T06:53:59.330Z,8.36
2023-04-17T06:54:59.305Z,8.41
2023-04-17T06:55:59.264Z,8.37
2023-04-17T06:56:59.276Z,8.34
2023-04-17T06:57:59.252Z,8.41
2023-04-17T06:59:01.323Z,8.41
2023-04-17T06:59:59.284Z,8.30
2023-04-17T07:00:59.187Z,8.37
2023-04-17T07:01:59.231Z,8.38
2023-04-17T07:02:59.227Z,8.36
2023-04-17T07:03:59.212Z,8.33
2023-04-17T07:04:59.219Z,8.41
2023-04-17T07:05:59.096Z,8.48
2023-04-17T07:06:59.123Z,8.52
2023-04-17T07:07:59.066Z,8.55
2023-04-17T07:08:59.064Z,8.55
2023-04-17T07:09:59.055Z,8.59
2023-04-17T07:10:59.012Z,8.62
2023-04-17T07:11:59.000Z,8.61
2023-04-17T07:12:58.984Z,8.59
2023-04-17T07:13:58.964Z,8.59
2023-04-17T07:14:58.985Z,8.58
2023-04-17T07:15:59.003Z,8.70
2023-04-17T07:16:58.924Z,8.68
2023-04-17T07:17:58.955Z,8.63
2023-04-17T07:18:58.882Z,8.63
2023-04-17T07:19:58.878Z,8.71
2023-04-17T07:20:58.906Z,8.70
2023-04-17T07:21:58.832Z,8.70
2023-04-17T07:22:58.822Z,8.74
2023-04-17T07:23:58.815Z,8.73
2023-04-17T07:24:58.791Z,8.73
2023-04-17T07:25:58.811Z,8.70
2023-04-17T07:26:58.754Z,8.79
2023-04-17T07:27:58.732Z,8.86
2023-04-17T07:28:58.718Z,8.95
2023-04-17T07:29:58.750Z,8.99
2023-04-17T07:30:58.718Z,9.10
2023-04-17T07:31:58.824Z,9.13
2023-04-17T07:32:58.700Z,9.15
2023-04-17T07:33:58.637Z,9.21
2023-04-17T07:34:58.632Z,9.23
2023-04-17T07:35:58.632Z,9.32
2023-04-17T07:36:58.613Z,9.32
2023-04-17T07:37:58.583Z,9.33
2023-04-17T07:38:58.566Z,9.42
2023-04-17T07:39:58.599Z,9.38
2023-04-17T07:40:58.529Z,9.35
2023-04-17T07:41:58.507Z,9.47
2023-04-17T07:42:58.512Z,9.58
2023-04-17T07:43:59.099Z,9.65
2023-04-17T07:44:58.469Z,9.57
2023-04-17T07:45:58.493Z,9.54
2023-04-17T07:46:58.517Z,9.53
2023-04-17T07:47:58.455Z,9.57
2023-04-17T07:48:58.439Z,9.60
2023-04-17T07:49:58.393Z,9.58
2023-04-17T07:50:58.366Z,9.60
2023-04-17T07:51:58.400Z,9.61
2023-04-17T07:52:58.341Z,9.66
2023-04-17T07:53:58.322Z,9.74
2023-04-17T07:54:58.306Z,9.76
2023-04-17T07:55:58.328Z,9.74
2023-04-17T07:56:58.365Z,9.76
2023-04-17T07:57:58.256Z,9.83
2023-04-17T07:58:58.259Z,9.74
2023-04-17T07:59:58.227Z,9.97
2023-04-17T08:00:58.227Z,10.01
2023-04-17T08:01:58.320Z,9.91
2023-04-17T08:02:58.452Z,10.01
2023-04-17T08:03:58.661Z,9.94
2023-04-17T08:04:58.251Z,9.91
2023-04-17T08:05:58.136Z,9.93
2023-04-17T08:06:58.125Z,9.97
2023-04-17T08:07:58.111Z,9.94
2023-04-17T08:08:58.137Z,9.97
2023-04-17T08:09:58.088Z,9.96
2023-04-17T08:10:58.060Z,9.89
2023-04-17T08:11:58.444Z,9.91
2023-04-17T08:12:58.039Z,9.99
2023-04-17T08:13:58.085Z,10.04
2023-04-17T08:14:58.009Z,10.09
2023-04-17T08:15:57.993Z,10.09
2023-04-17T08:16:58.068Z,10.18
2023-04-17T08:17:58.015Z,10.26
2023-04-17T08:18:57.954Z,10.15
2023-04-17T08:19:57.984Z,10.15
2023-04-17T08:20:58.015Z,10.14
2023-04-17T08:21:57.897Z,10.17
2023-04-17T08:22:57.882Z,10.20
2023-04-17T08:23:57.873Z,10.32
2023-04-17T08:24:57.998Z,10.41
2023-04-17T08:25:57.848Z,10.38
2023-04-17T08:26:57.830Z,10.45
2023-04-17T08:27:57.842Z,10.48
2023-04-17T08:28:57.801Z,10.47
2023-04-17T08:29:57.780Z,10.59
2023-04-17T08:30:57.830Z,10.47
2023-04-17T08:32:12.586Z,10.47
2023-04-17T08:32:58.026Z,10.45
2023-04-17T08:34:10.495Z,10.47
2023-04-17T08:34:57.710Z,10.52
2023-04-17T08:35:57.706Z,10.61
2023-04-17T08:36:57.685Z,10.61
2023-04-17T08:37:57.669Z,10.61
2023-04-17T08:38:57.656Z,10.59
2023-04-17T08:39:57.639Z,10.48
2023-04-17T08:40:57.655Z,10.61
2023-04-17T08:41:57.613Z,10.63
2023-04-17T08:42:57.599Z,10.71
2023-04-17T08:43:57.626Z,10.82
2023-04-17T08:44:57.575Z,10.89
2023-04-17T08:45:57.590Z,10.84
2023-04-17T08:46:57.549Z,11.00
2023-04-17T08:47:57.606Z,11.02
2023-04-17T08:48:57.515Z,11.04
2023-04-17T08:49:57.539Z,11.15
2023-04-17T08:50:57.530Z,11.19
2023-04-17T08:51:57.474Z,11.19
2023-04-17T08:52:57.503Z,11.17
2023-04-17T08:53:57.460Z,11.25
2023-04-17T08:54:57.438Z,11.29
2023-04-17T08:55:57.436Z,11.19
2023-04-17T08:56:57.413Z,11.24
2023-04-17T08:57:57.407Z,11.24
2023-04-17T08:58:57.384Z,11.14
2023-04-17T08:59:57.397Z,11.21
2023-04-17T09:00:57.406Z,11.22
2023-04-17T09:01:57.422Z,11.11
2023-04-17T09:02:57.686Z,11.15
2023-04-17T09:03:57.561Z,11.11
2023-04-17T09:04:57.424Z,11.24
2023-04-17T09:05:57.344Z,11.24
2023-04-17T09:06:57.280Z,11.25
2023-04-17T09:07:57.266Z,11.32
2023-04-17T09:08:57.441Z,11.35
2023-04-17T09:09:57.251Z,11.33
2023-04-17T09:10:57.226Z,11.44
2023-04-17T09:11:57.247Z,11.36
2023-04-17T09:12:57.198Z,11.29
2023-04-17T09:13:57.187Z,11.33
2023-04-17T09:14:57.176Z,11.28
2023-04-17T09:15:57.230Z,11.43
2023-04-17T09:16:57.148Z,11.43
2023-04-17T09:17:57.147Z,11.46
2023-04-17T09:18:57.192Z,11.47
2023-04-17T09:19:57.113Z,11.46
2023-04-17T09:20:57.099Z,11.49
2023-04-17T09:21:57.095Z,11.79
2023-04-17T09:22:57.080Z,11.82
2023-04-17T09:23:57.065Z,11.75
2023-04-17T09:24:57.786Z,11.75
2023-04-17T09:25:57.044Z,11.75
2023-04-17T09:26:57.031Z,11.85
2023-04-17T09:27:57.062Z,11.94
2023-04-17T09:28:57.060Z,11.90
2023-04-17T09:29:56.992Z,11.96
2023-04-17T09:30:57.020Z,11.90
2023-04-17T09:31:57.003Z,11.96
2023-04-17T09:32:57.027Z,12.16
2023-04-17T09:33:56.965Z,12.19
2023-04-17T09:34:56.957Z,12.19
2023-04-17T09:35:56.932Z,12.23
2023-04-17T09:36:56.956Z,12.27
2023-04-17T09:37:56.911Z,12.13
2023-04-17T09:38:56.904Z,12.28
2023-04-17T09:39:56.904Z,12.39
2023-04-17T09:40:57.087Z,12.47
2023-04-17T09:41:56.873Z,12.29
2023-04-17T09:42:56.873Z,12.24
2023-04-17T09:43:56.860Z,12.20
2023-04-17T09:44:56.847Z,12.19
2023-04-17T09:45:56.850Z,12.20
2023-04-17T09:46:56.879Z,12.32
2023-04-17T09:47:56.871Z,12.42
2023-04-17T09:48:56.807Z,12.53
2023-04-17T09:49:56.809Z,12.54
2023-04-17T09:50:56.806Z,12.46
2023-04-17T09:51:56.780Z,12.45
2023-04-17T09:52:56.774Z,12.39
2023-04-17T09:53:56.759Z,12.45
2023-04-17T09:54:56.753Z,12.31
2023-04-17T09:55:56.742Z,12.21
2023-04-17T09:56:56.743Z,12.38
2023-04-17T09:57:56.747Z,12.50
2023-04-17T09:58:56.711Z,12.68
2023-04-17T09:59:56.708Z,12.75
2023-04-17T10:00:56.717Z,12.71
2023-04-17T10:01:56.750Z,12.52
2023-04-17T10:02:56.832Z,12.39
2023-04-17T10:03:56.782Z,12.39
2023-04-17T10:04:56.647Z,12.64
2023-04-17T10:05:56.641Z,12.74
2023-04-17T10:06:56.681Z,12.79
2023-04-17T10:07:56.650Z,12.93
2023-04-17T10:08:56.607Z,12.89
2023-04-17T10:09:56.614Z,12.97
2023-04-17T10:10:56.605Z,13.01
2023-04-17T10:11:56.580Z,12.92
2023-04-17T10:12:56.617Z,13.01
2023-04-17T10:13:56.571Z,13.10
2023-04-17T10:14:56.551Z,13.28
2023-04-17T10:15:56.579Z,13.07
2023-04-17T10:16:56.588Z,13.25
2023-04-17T10:17:56.637Z,13.15
2023-04-17T10:18:56.582Z,13.29
2023-04-17T10:19:56.509Z,13.48
2023-04-17T10:20:56.497Z,13.54
2023-04-17T10:21:56.504Z,13.57
2023-04-17T10:22:56.570Z,13.44
2023-04-17T10:23:56.478Z,13.48
2023-04-17T10:24:56.465Z,13.54
2023-04-17T10:25:56.454Z,13.55
2023-04-17T10:26:56.449Z,13.60
2023-04-17T10:27:56.442Z,13.33
2023-04-17T10:28:56.506Z,13.15
2023-04-17T10:29:56.481Z,13.10
2023-04-17T10:30:56.419Z,13.29
2023-04-17T10:31:56.436Z,13.44
2023-04-17T10:32:56.435Z,13.54
2023-04-17T10:33:56.403Z,13.55
2023-04-17T10:34:56.389Z,13.55
2023-04-17T10:35:56.441Z,13.54
2023-04-17T10:36:56.374Z,13.66
2023-04-17T10:37:56.377Z,13.45
2023-04-17T10:38:56.357Z,13.55
2023-04-17T10:39:56.352Z,13.84
2023-04-17T10:40:56.348Z,14.06
2023-04-17T10:41:56.336Z,14.22
2023-04-17T10:42:56.331Z,14.36
2023-04-17T10:43:56.322Z,14.50
2023-04-17T10:44:56.326Z,14.68
2023-04-17T10:45:56.345Z,14.84
2023-04-17T10:46:56.295Z,15.14
2023-04-17T10:47:56.300Z,15.36
2023-04-17T10:48:56.314Z,15.51
2023-04-17T10:49:56.277Z,15.57
2023-04-17T10:50:56.333Z,15.49
2023-04-17T10:51:56.256Z,15.10
2023-04-17T10:52:56.298Z,14.75
2023-04-17T10:53:56.244Z,14.58
2023-04-17T10:54:56.232Z,14.58
2023-04-17T10:55:56.225Z,14.37
2023-04-17T10:56:56.231Z,14.36
2023-04-17T10:57:56.209Z,14.50
2023-04-17T10:58:56.200Z,14.43
2023-04-17T10:59:56.223Z,14.09
2023-04-17T11:00:56.213Z,13.88
2023-04-17T11:01:56.288Z,13.97
2023-04-17T11:02:56.262Z,14.22
2023-04-17T11:03:56.171Z,14.27
2023-04-17T11:04:56.231Z,14.17
2023-04-17T11:05:56.159Z,14.21
2023-04-17T11:06:56.150Z,13.99
2023-04-17T11:07:56.149Z,13.89
2023-04-17T11:08:57.403Z,14.10
2023-04-17T11:09:56.106Z,14.40
2023-04-17T11:10:56.095Z,14.60
2023-04-17T11:11:56.137Z,14.45
2023-04-17T11:12:56.108Z,14.54
2023-04-17T11:13:56.068Z,14.83
2023-04-17T11:14:56.061Z,14.81
2023-04-17T11:15:56.053Z,14.77
2023-04-17T11:16:56.100Z,14.69
2023-04-17T11:17:56.109Z,14.70
2023-04-17T11:18:56.030Z,14.60
2023-04-17T11:19:56.026Z,14.62
2023-04-17T11:20:56.024Z,14.75
2023-04-17T11:21:56.001Z,14.78
2023-04-17T11:22:55.993Z,14.95
2023-04-17T11:23:56.026Z,15.03
2023-04-17T11:24:55.980Z,15.27
2023-04-17T11:25:55.983Z,15.46
2023-04-17T11:26:55.959Z,15.60
2023-04-17T11:27:55.966Z,15.80
2023-04-17T11:28:55.948Z,15.92
2023-04-17T11:29:55.946Z,16.17
2023-04-17T11:30:55.945Z,16.28
2023-04-17T11:31:55.942Z,16.25
2023-04-17T11:32:56.096Z,15.94
2023-04-17T11:33:55.909Z,15.53
2023-04-17T11:34:55.910Z,15.59
2023-04-17T11:35:55.888Z,15.62
2023-04-17T11:36:55.876Z,15.62
2023-04-17T11:37:55.872Z,15.64
2023-04-17T11:38:55.894Z,15.59
2023-04-17T11:39:55.866Z,15.54
2023-04-17T11:40:55.871Z,15.54
2023-04-17T11:41:55.865Z,15.71
2023-04-17T11:42:55.828Z,15.93
2023-04-17T11:43:55.821Z,16.25
2023-04-17T11:44:55.844Z,16.24
2023-04-17T11:45:55.819Z,16.21
2023-04-17T11:46:55.812Z,16.28
2023-04-17T11:47:55.876Z,15.97
2023-04-17T11:48:55.813Z,15.69
2023-04-17T11:49:55.799Z,15.34
2023-04-17T11:50:55.782Z,14.77
2023-04-17T11:51:56.680Z,14.40
2023-04-17T11:52:55.753Z,14.25
2023-04-17T11:53:55.747Z,14.20
2023-04-17T11:54:55.742Z,14.17
2023-04-17T11:55:55.726Z,14.50
2023-04-17T11:56:55.797Z,14.92
2023-04-17T11:57:55.705Z,15.41
2023-04-17T11:58:55.697Z,15.60
2023-04-17T11:59:55.689Z,16.02
2023-04-17T12:00:55.687Z,16.45
2023-04-17T12:01:55.688Z,16.71
2023-04-17T12:02:55.784Z,16.48
2023-04-17T12:03:55.792Z,16.57
2023-04-17T12:04:55.739Z,16.71
2023-04-17T12:05:55.731Z,16.96
2023-04-17T12:06:56.982Z,16.52
2023-04-17T12:07:55.652Z,15.90
2023-04-17T12:08:55.636Z,15.49
2023-04-17T12:09:55.615Z,15.16
2023-04-17T12:10:55.609Z,14.83
2023-04-17T12:11:55.635Z,14.43
2023-04-17T12:12:55.603Z,14.51
2023-04-17T12:13:55.601Z,14.57
2023-04-17T12:14:55.591Z,14.75
2023-04-17T12:15:55.581Z,14.80
2023-04-17T12:16:55.560Z,15.43
2023-04-17T12:17:55.620Z,15.57
2023-04-17T12:18:55.604Z,15.64
2023-04-17T12:19:55.538Z,16.05
2023-04-17T12:20:55.534Z,16.61
2023-04-17T12:21:55.515Z,17.11
2023-04-17T12:22:55.517Z,17.43
2023-04-17T12:23:55.506Z,17.63
2023-04-17T12:24:55.525Z,17.92
2023-04-17T12:25:55.500Z,18.30
2023-04-17T12:26:55.484Z,18.73
2023-04-17T12:27:55.482Z,19.02
2023-04-17T12:28:55.514Z,19.21
2023-04-17T12:29:55.479Z,19.04
2023-04-17T12:30:55.468Z,18.11
2023-04-17T12:31:55.491Z,17.19
2023-04-17T12:32:55.515Z,16.66
2023-04-17T12:33:55.453Z,16.60
2023-04-17T12:34:55.479Z,16.76
2023-04-17T12:35:55.479Z,17.01
2023-04-17T12:36:55.466Z,17.34
2023-04-17T12:37:55.429Z,17.33
2023-04-17T12:38:55.438Z,17.18
2023-04-17T12:39:55.427Z,17.30
2023-04-17T12:40:55.479Z,17.58
2023-04-17T12:41:55.437Z,17.89
2023-04-17T12:42:55.432Z,17.99
2023-04-17T12:43:55.406Z,18.26
2023-04-17T12:44:55.408Z,18.67
2023-04-17T12:45:55.472Z,18.65
2023-04-17T12:46:55.454Z,18.69
2023-04-17T12:47:55.446Z,18.87
2023-04-17T12:48:55.387Z,18.99
2023-04-17T12:49:55.385Z,19.16
2023-04-17T12:50:55.382Z,19.50
2023-04-17T12:51:55.374Z,19.55
2023-04-17T12:52:55.438Z,19.00
2023-04-17T12:53:55.367Z,18.58
2023-04-17T12:54:55.370Z,18.20
2023-04-17T12:55:55.373Z,18.07
2023-04-17T12:56:55.356Z,17.66
2023-04-17T12:57:55.359Z,17.52
2023-04-17T12:58:55.397Z,17.31
2023-04-17T12:59:55.348Z,17.08
2023-04-17T13:00:55.350Z,17.28
2023-04-17T13:01:55.392Z,17.46
2023-04-17T13:02:55.498Z,17.28
2023-04-17T13:03:55.560Z,17.40
2023-04-17T13:04:55.360Z,17.59
2023-04-17T13:05:55.330Z,17.75
2023-04-17T13:06:55.307Z,17.78
2023-04-17T13:07:55.302Z,17.71